Time;durP1;ratioP1;P1;durP2;ratioP2;P2;SDS_P1;SDS_P2;PMS_P1;PMS_P2;Temp;Humidity;BMP_temperature;BMP_pressure;BME280_temperature;BME280_humidity;BME280_pressure;Samples;Min_cycle;Max_cycle;Signal;HPM_P1;HPM_P2
2022/11/26 00:01:22;;;;;;;50.65;21.13;;;;;;;7.94;100.00;102172.47;5033903;28;20051;-72
2022/11/26 00:03:50;;;;;;;39.53;16.77;;;;;;;7.91;100.00;102179.47;5035147;28;20053;-71
2022/11/26 00:06:23;;;;;;;44.78;16.77;;;;;;;8.00;100.00;102180.16;5036207;28;20045;-72
2022/11/26 00:08:50;;;;;;;42.17;17.00;;;;;;;8.00;100.00;102176.59;5031604;28;20053;-74
2022/11/26 00:11:17;;;;;;;40.92;16.05;;;;;;;8.00;100.00;102180.16;5031703;28;20067;-72
2022/11/26 00:13:43;;;;;;;54.08;18.10;;;;;;;7.97;100.00;102182.81;5032480;28;20045;-72
2022/11/26 00:16:12;;;;;;;42.63;17.70;;;;;;;7.96;100.00;102178.44;5030259;28;20504;-71
2022/11/26 00:18:40;;;;;;;40.20;17.58;;;;;;;7.97;100.00;102183.59;5037404;28;20052;-71
2022/11/26 00:21:17;;;;;;;41.80;16.77;;;;;;;7.97;100.00;102191.88;5031589;28;20053;-71
2022/11/26 00:23:44;;;;;;;45.67;18.88;;;;;;;7.91;100.00;102178.66;5031535;28;20060;-72
2022/11/26 00:26:18;;;;;;;45.83;21.73;;;;;;;7.97;100.00;102191.09;5029981;28;20056;-73
2022/11/26 00:28:56;;;;;;;38.97;16.10;;;;;;;8.00;100.00;102204.97;5029604;28;20814;-72
2022/11/26 00:31:23;;;;;;;42.20;15.98;;;;;;;7.91;100.00;102189.69;5037500;28;20052;-71
2022/11/26 00:33:49;;;;;;;44.10;16.08;;;;;;;7.91;100.00;102204.25;5034305;28;20126;-71
2022/11/26 00:36:21;;;;;;;36.97;15.93;;;;;;;7.91;100.00;102209.00;5028731;28;21802;-71
2022/11/26 00:39:12;;;;;;;48.20;15.95;;;;;;;7.88;100.00;102218.75;5033699;28;20457;-72
2022/11/26 00:41:39;;;;;;;35.05;16.13;;;;;;;7.78;100.00;102216.44;5023049;28;20068;-72
2022/11/26 00:44:16;;;;;;;34.72;15.32;;;;;;;7.72;100.00;102223.31;5037551;28;20769;-71
2022/11/26 00:46:43;;;;;;;41.72;15.50;;;;;;;7.68;100.00;102227.91;5032011;28;20126;-72
2022/11/26 00:49:09;;;;;;;38.05;15.05;;;;;;;7.68;100.00;102232.59;5031840;28;20053;-72
2022/11/26 00:51:36;;;;;;;42.40;15.07;;;;;;;7.63;100.00;102235.59;5028974;28;20627;-71
2022/11/26 00:54:04;;;;;;;40.38;16.65;;;;;;;7.58;100.00;102228.34;5034648;28;20060;-71
2022/11/26 00:56:32;;;;;;;43.20;15.10;;;;;;;7.60;100.00;102230.75;5039143;28;20044;-74
2022/11/26 00:59:04;;;;;;;40.08;14.57;;;;;;;7.54;100.00;102243.94;5030563;28;20053;-75
2022/11/26 01:01:31;;;;;;;37.38;16.80;;;;;;;7.46;100.00;102236.56;5032453;28;20064;-74
2022/11/26 01:03:58;;;;;;;40.72;15.73;;;;;;;7.46;100.00;102246.78;5034352;28;20064;-71
2022/11/26 01:06:33;;;;;;;31.55;14.45;;;;;;;7.39;100.00;102243.78;5032900;28;20915;-71
2022/11/26 01:09:02;;;;;;;35.08;14.10;;;;;;;7.29;100.00;102246.97;5032370;28;20072;-72
2022/11/26 01:11:29;;;;;;;31.77;14.10;;;;;;;7.20;100.00;102246.22;5035120;28;20057;-72
2022/11/26 01:13:55;;;;;;;37.55;14.73;;;;;;;7.26;100.00;102242.91;5029887;28;20055;-71
2022/11/26 01:16:29;;;;;;;40.42;16.75;;;;;;;7.37;100.00;102268.09;5031898;28;20674;-71
2022/11/26 01:18:59;;;;;;;54.63;17.23;;;;;;;7.35;100.00;102270.38;5034504;28;20064;-71
2022/11/26 01:21:28;;;;;;;47.00;17.63;;;;;;;7.39;100.00;102274.88;5027875;28;20049;-71
2022/11/26 01:23:55;;;;;;;34.40;14.02;;;;;;;7.39;100.00;102282.34;5032280;28;20454;-74
2022/11/26 01:26:24;;;;;;;43.10;14.98;;;;;;;7.38;100.00;102277.94;5029333;28;20853;-71
2022/11/26 01:28:51;;;;;;;29.50;13.88;;;;;;;7.33;100.00;102278.97;5039513;28;20044;-71
2022/11/26 01:31:23;;;;;;;35.53;15.18;;;;;;;7.28;100.00;102281.94;5038704;28;20455;-72
2022/11/26 01:33:50;;;;;;;32.72;12.88;;;;;;;7.17;100.00;102277.16;5037650;28;20056;-71
2022/11/26 01:36:27;;;;;;;35.60;14.40;;;;;;;7.25;100.00;102285.34;5035272;28;20045;-71
2022/11/26 01:38:58;;;;;;;36.63;15.15;;;;;;;7.26;100.00;102286.19;5042200;28;20068;-71
2022/11/26 01:41:45;;;;;;;32.13;13.82;;;;;;;7.25;100.00;102285.34;5032350;28;20056;-72
2022/11/26 01:44:16;;;;;;;34.85;15.40;;;;;;;7.22;100.00;102285.22;5038403;28;20049;-74
2022/11/26 01:46:43;;;;;;;36.83;15.43;;;;;;;7.20;100.00;102293.03;5037893;28;20044;-73
2022/11/26 01:49:32;;;;;;;38.67;15.00;;;;;;;7.17;100.00;102290.94;5035953;28;20153;-71
2022/11/26 01:52:04;;;;;;;36.22;15.57;;;;;;;7.13;100.00;102284.50;5034143;28;20049;-73
2022/11/26 01:54:35;;;;;;;33.15;13.50;;;;;;;7.09;100.00;102278.84;5028009;28;20053;-72
2022/11/26 01:57:13;;;;;;;43.35;15.18;;;;;;;7.11;100.00;102289.53;5032084;28;20048;-71
2022/11/26 01:59:42;;;;;;;36.28;14.95;;;;;;;7.08;100.00;102291.00;5032728;28;20056;-72
2022/11/26 02:02:09;;;;;;;39.00;16.52;;;;;;;7.02;100.00;102286.06;5033941;28;20049;-71
2022/11/26 02:04:42;;;;;;;36.92;15.63;;;;;;;7.05;100.00;102294.44;5030734;28;20049;-72
2022/11/26 02:07:09;;;;;;;31.05;14.32;;;;;;;7.04;100.00;102283.75;5032414;28;20048;-72
2022/11/26 02:09:35;;;;;;;38.85;14.73;;;;;;;7.04;100.00;102295.56;5032616;28;20150;-70
2022/11/26 02:12:02;;;;;;;34.30;14.63;;;;;;;6.91;100.00;102276.56;5039464;28;20490;-72
2022/11/26 02:14:34;;;;;;;39.97;15.00;;;;;;;6.96;100.00;102284.63;5025466;28;20060;-74
2022/11/26 02:17:24;;;;;;;37.22;14.75;;;;;;;6.93;100.00;102296.31;5041607;28;20118;-73
2022/11/26 02:20:22;;;;;;;41.17;15.13;;;;;;;6.96;100.00;102290.13;5027506;28;21002;-72
2022/11/26 02:22:49;;;;;;;30.42;13.57;;;;;;;6.96;100.00;102295.66;5027843;28;20872;-71
2022/11/26 02:25:34;;;;;;;42.00;14.57;;;;;;;6.90;100.00;102300.53;5031902;28;20141;-70
2022/11/26 02:28:40;;;;;;;34.17;13.03;;;;;;;6.75;100.00;102276.34;5034210;28;20385;-74
2022/11/26 02:31:09;;;;;;;35.33;12.80;;;;;;;6.88;100.00;102288.22;5032040;28;20053;-74
2022/11/26 02:33:42;;;;;;;29.35;12.38;;;;;;;6.87;100.00;102300.38;5033107;28;20048;-71
2022/11/26 02:36:15;;;;;;;37.53;12.70;;;;;;;6.79;100.00;102306.75;5036888;28;20099;-70
2022/11/26 02:38:43;;;;;;;36.63;13.50;;;;;;;6.74;100.00;102290.44;5031317;28;20607;-72
2022/11/26 02:41:09;;;;;;;32.83;13.85;;;;;;;6.71;100.00;102289.16;5031366;28;20053;-70
2022/11/26 02:43:37;;;;;;;34.08;13.00;;;;;;;6.71;100.00;102293.84;5037260;28;20416;-74
2022/11/26 02:46:17;;;;;;;30.58;13.07;;;;;;;6.61;100.00;102286.00;5035232;28;20053;-71
2022/11/26 02:48:48;;;;;;;29.95;12.90;;;;;;;6.60;100.00;102295.38;5036028;28;20146;-71
2022/11/26 02:51:24;;;;;;;36.65;14.52;;;;;;;6.55;100.00;102292.84;5034609;28;20060;-73
2022/11/26 02:53:58;;;;;;;30.33;13.25;;;;;;;6.48;100.00;102292.56;5034835;28;20067;-73
2022/11/26 02:56:27;;;;;;;28.45;12.27;;;;;;;6.36;100.00;102279.50;5033389;28;20056;-73
2022/11/26 02:58:56;;;;;;;31.92;13.73;;;;;;;6.42;100.00;102291.13;5032916;28;20049;-72
2022/11/26 03:01:37;;;;;;;28.50;13.15;;;;;;;6.41;100.00;102284.81;5035118;28;20091;-74
2022/11/26 03:04:11;;;;;;;32.25;12.60;;;;;;;6.38;100.00;102281.94;5032696;28;20141;-73
2022/11/26 03:06:39;;;;;;;32.93;14.43;;;;;;;6.39;100.00;102278.03;5031107;28;20183;-71
2022/11/26 03:09:06;;;;;;;33.08;13.50;;;;;;;6.29;100.00;102265.47;5034524;28;20049;-71
2022/11/26 03:11:33;;;;;;;40.35;13.82;;;;;;;6.33;100.00;102274.66;5050515;28;20075;-70
2022/11/26 03:14:00;;;;;;;35.95;12.93;;;;;;;6.20;100.00;102261.97;5051444;28;20071;-70
2022/11/26 03:16:26;;;;;;;31.50;13.00;;;;;;;6.27;100.00;102286.97;5049294;28;20509;-72
2022/11/26 03:18:53;;;;;;;32.35;13.20;;;;;;;6.19;100.00;102295.28;5049563;28;20510;-71
2022/11/26 03:21:19;;;;;;;31.85;12.98;;;;;;;6.16;100.00;102291.25;5047720;28;20056;-73
2022/11/26 03:23:46;;;;;;;29.52;12.52;;;;;;;6.16;100.00;102304.16;5049081;28;20494;-70
2022/11/26 03:26:12;;;;;;;30.05;13.27;;;;;;;6.15;100.00;102299.81;5049656;28;20512;-70
2022/11/26 03:28:39;;;;;;;32.03;14.10;;;;;;;6.05;100.00;102300.19;5047860;28;20053;-70
2022/11/26 03:31:05;;;;;;;29.73;12.20;;;;;;;6.06;100.00;102308.09;5047979;28;20484;-71
2022/11/26 03:33:32;;;;;;;34.65;12.32;;;;;;;5.98;100.00;102297.13;5049109;28;20041;-70
2022/11/26 03:35:58;;;;;;;33.80;13.95;;;;;;;5.97;100.00;102293.56;5048694;28;20500;-70
2022/11/26 03:38:25;;;;;;;27.73;12.95;;;;;;;6.05;100.00;102302.94;5053397;28;20049;-73
2022/11/26 03:41:01;;;;;;;35.10;13.10;;;;;;;6.00;100.00;102297.63;5049229;28;20056;-72
2022/11/26 03:43:27;;;;;;;31.67;12.98;;;;;;;5.95;100.00;102303.28;5048920;28;20056;-70
2022/11/26 03:45:54;;;;;;;30.83;12.10;;;;;;;5.90;100.00;102311.72;5049221;28;20057;-71
2022/11/26 03:48:20;;;;;;;30.40;12.50;;;;;;;5.81;100.00;102311.75;5048227;28;20059;-72
2022/11/26 03:50:47;;;;;;;33.17;12.80;;;;;;;5.85;100.00;102323.69;5047579;28;20044;-71
2022/11/26 03:53:13;;;;;;;37.20;13.07;;;;;;;5.84;100.00;102321.25;5048802;28;20049;-70
2022/11/26 03:55:40;;;;;;;30.52;13.30;;;;;;;5.85;100.00;102337.41;5048444;28;20056;-70
2022/11/26 03:58:06;;;;;;;30.65;12.30;;;;;;;5.84;100.00;102335.00;5049035;28;20056;-71
2022/11/26 04:00:33;;;;;;;31.42;12.73;;;;;;;5.80;100.00;102336.75;5048067;28;20060;-71
2022/11/26 04:02:59;;;;;;;31.45;12.32;;;;;;;5.78;100.00;102339.00;5050774;28;20049;-71
2022/11/26 04:05:26;;;;;;;35.95;14.30;;;;;;;5.75;100.00;102339.66;5049174;28;20056;-71
2022/11/26 04:07:52;;;;;;;26.10;12.70;;;;;;;5.75;100.00;102345.97;5052832;28;20565;-71
2022/11/26 04:10:19;;;;;;;29.38;13.40;;;;;;;5.72;100.00;102356.78;5047343;28;20072;-71
2022/11/26 04:12:45;;;;;;;30.77;12.13;;;;;;;5.68;100.00;102345.66;5048328;28;20049;-71
2022/11/26 04:15:12;;;;;;;29.13;11.68;;;;;;;5.67;100.00;102357.75;5048222;28;20102;-71
2022/11/26 04:17:38;;;;;;;30.83;11.77;;;;;;;5.65;100.00;102361.97;5048866;28;20049;-70
2022/11/26 04:20:06;;;;;;;33.35;12.98;;;;;;;5.63;100.00;102370.53;5047340;28;20049;-71
2022/11/26 04:22:32;;;;;;;30.73;12.95;;;;;;;5.66;100.00;102372.63;5047507;28;20520;-70
2022/11/26 04:24:58;;;;;;;26.73;13.32;;;;;;;5.67;100.00;102373.44;5047338;28;20543;-69
2022/11/26 04:27:25;;;;;;;31.08;11.63;;;;;;;5.68;100.00;102370.38;5053661;28;20037;-71
2022/11/26 04:29:51;;;;;;;28.67;11.88;;;;;;;5.66;100.00;102372.63;5047552;28;20071;-71
2022/11/26 04:32:18;;;;;;;33.40;12.73;;;;;;;5.65;100.00;102373.75;5048157;28;20071;-72
2022/11/26 04:34:44;;;;;;;30.50;13.80;;;;;;;5.64;100.00;102377.66;5053361;28;20053;-71
2022/11/26 04:37:11;;;;;;;32.35;12.35;;;;;;;5.60;100.00;102381.34;5048029;28;20417;-71
2022/11/26 04:39:37;;;;;;;29.23;12.65;;;;;;;5.58;100.00;102394.59;5047522;28;20513;-70
2022/11/26 04:42:04;;;;;;;32.85;13.40;;;;;;;5.59;100.00;102398.94;5047801;28;20057;-72
2022/11/26 04:44:30;;;;;;;30.05;13.30;;;;;;;5.64;100.00;102404.28;5047598;28;20064;-70
2022/11/26 04:46:57;;;;;;;32.30;12.93;;;;;;;5.69;100.00;102399.44;5048030;28;20049;-73
2022/11/26 04:49:23;;;;;;;27.63;13.52;;;;;;;5.75;100.00;102398.16;5047121;28;20057;-69
2022/11/26 04:51:50;;;;;;;29.63;13.48;;;;;;;5.77;100.00;102401.38;5047784;28;20056;-70
2022/11/26 04:54:16;;;;;;;31.23;13.27;;;;;;;5.79;100.00;102392.81;5048149;28;20056;-71
2022/11/26 04:56:43;;;;;;;36.88;13.77;;;;;;;5.73;100.00;102391.38;5046486;28;20056;-71
2022/11/26 04:59:09;;;;;;;36.28;14.45;;;;;;;5.84;100.00;102409.16;5048250;28;20076;-73
2022/11/26 05:01:36;;;;;;;37.78;14.25;;;;;;;5.91;100.00;102417.72;5046870;28;20057;-70
2022/11/26 05:04:03;;;;;;;36.60;13.93;;;;;;;5.99;100.00;102419.63;5054296;28;20053;-70
2022/11/26 05:06:29;;;;;;;36.63;13.85;;;;;;;6.11;100.00;102436.28;5043785;28;20052;-71
2022/11/26 05:08:56;;;;;;;31.70;11.35;;;;;;;6.19;100.00;102433.53;5051596;28;20049;-70
2022/11/26 05:11:22;;;;;;;36.33;14.00;;;;;;;6.29;100.00;102433.19;5049670;28;20791;-73
2022/11/26 05:13:49;;;;;;;34.28;15.85;;;;;;;6.41;100.00;102438.00;5052106;28;20057;-70
2022/11/26 05:16:15;;;;;;;38.67;13.88;;;;;;;6.46;100.00;102433.13;5050420;28;20049;-70
2022/11/26 05:18:42;;;;;;;39.00;14.73;;;;;;;6.49;100.00;102437.97;5051595;28;20048;-70
2022/11/26 05:21:08;;;;;;;30.88;13.32;;;;;;;6.53;100.00;102427.09;5051162;28;20060;-70
2022/11/26 05:23:35;;;;;;;39.33;14.63;;;;;;;6.50;100.00;102416.75;5051162;28;20098;-70
2022/11/26 05:26:01;;;;;;;44.58;13.57;;;;;;;6.57;100.00;102423.38;5054424;28;20041;-70
2022/11/26 05:28:28;;;;;;;41.28;14.45;;;;;;;6.57;100.00;102434.38;5051426;28;19936;-71
2022/11/26 05:30:59;;;;;;;32.60;12.88;;;;;;;6.51;100.00;102429.41;5052906;28;20059;-71
2022/11/26 05:33:26;;;;;;;44.55;14.32;;;;;;;6.52;100.00;102425.50;5050091;28;20041;-69
2022/11/26 05:35:52;;;;;;;34.05;12.80;;;;;;;6.59;100.00;102437.63;5050844;28;20087;-70
2022/11/26 05:38:19;;;;;;;40.33;13.57;;;;;;;6.65;100.00;102438.25;5051509;28;20064;-71
2022/11/26 05:40:46;;;;;;;37.90;13.40;;;;;;;6.65;100.00;102439.03;5050690;28;20053;-70
2022/11/26 05:43:13;;;;;;;34.58;12.80;;;;;;;6.65;100.00;102441.78;5051148;28;20063;-70
2022/11/26 05:45:39;;;;;;;29.85;12.20;;;;;;;6.62;100.00;102447.94;5052344;28;20057;-71
2022/11/26 05:48:06;;;;;;;34.25;12.95;;;;;;;6.59;100.00;102443.13;5050871;28;20099;-70
2022/11/26 05:50:32;;;;;;;35.65;13.07;;;;;;;6.49;100.00;102442.66;5049822;28;20061;-68
2022/11/26 05:52:59;;;;;;;32.42;11.82;;;;;;;6.49;100.00;102448.16;5051394;28;20064;-70
2022/11/26 05:55:26;;;;;;;27.98;11.52;;;;;;;6.44;100.00;102449.13;5050891;28;20052;-71
2022/11/26 05:57:52;;;;;;;33.25;13.05;;;;;;;6.36;100.00;102449.16;5050949;28;20509;-71
2022/11/26 06:00:19;;;;;;;29.98;11.40;;;;;;;6.28;100.00;102452.75;5049589;28;20056;-70
2022/11/26 06:02:45;;;;;;;27.13;10.40;;;;;;;6.23;100.00;102461.16;5051936;28;20054;-71
2022/11/26 06:05:12;;;;;;;26.40;11.15;;;;;;;6.28;100.00;102463.75;5050701;28;20739;-73
2022/11/26 06:07:39;;;;;;;31.45;11.27;;;;;;;6.25;100.00;102447.91;5050433;28;20064;-71
2022/11/26 06:10:10;;;;;;;27.67;10.93;;;;;;;6.35;100.00;102458.56;5049985;28;20049;-72
2022/11/26 06:12:37;;;;;;;34.92;10.40;;;;;;;6.36;100.00;102462.91;5051177;28;20497;-70
2022/11/26 06:15:04;;;;;;;36.13;12.25;;;;;;;6.40;100.00;102464.69;5050866;28;20051;-70
2022/11/26 06:17:30;;;;;;;35.33;11.00;;;;;;;6.41;100.00;102457.25;5051726;28;20037;-71
2022/11/26 06:19:57;;;;;;;32.47;11.10;;;;;;;6.41;100.00;102463.53;5049291;28;20052;-70
2022/11/26 06:22:23;;;;;;;26.00;10.32;;;;;;;6.31;100.00;102450.13;5050407;28;20052;-70
2022/11/26 06:24:50;;;;;;;29.15;10.93;;;;;;;6.35;100.00;102472.28;5050699;28;20091;-70
2022/11/26 06:27:16;;;;;;;26.52;10.77;;;;;;;6.30;100.00;102473.28;5050589;28;20049;-69
2022/11/26 06:29:43;;;;;;;27.60;11.68;;;;;;;6.22;100.00;102474.09;5051423;28;20041;-74
2022/11/26 06:32:10;;;;;;;37.20;11.13;;;;;;;6.20;100.00;102468.09;5050873;28;20057;-71
2022/11/26 06:34:36;;;;;;;33.15;10.98;;;;;;;6.17;100.00;102463.25;5050044;28;20517;-72
2022/11/26 06:37:04;;;;;;;30.45;11.32;;;;;;;6.14;100.00;102461.16;5050100;28;20044;-72
2022/11/26 06:39:30;;;;;;;28.30;12.13;;;;;;;6.10;100.00;102467.63;5050067;28;20052;-69
2022/11/26 06:41:57;;;;;;;33.28;12.02;;;;;;;6.00;100.00;102457.00;5049773;28;20048;-72
2022/11/26 06:44:23;;;;;;;28.40;11.43;;;;;;;6.04;100.00;102477.97;5052665;28;20072;-72
2022/11/26 06:46:50;;;;;;;30.65;11.63;;;;;;;6.01;100.00;102480.59;5049596;28;20398;-71
2022/11/26 06:49:16;;;;;;;25.40;10.85;;;;;;;5.97;100.00;102485.13;5049590;28;20433;-72
2022/11/26 06:51:43;;;;;;;30.90;11.13;;;;;;;5.94;100.00;102483.00;5050444;28;20045;-71
2022/11/26 06:54:09;;;;;;;33.20;11.93;;;;;;;5.91;100.00;102478.97;5049933;28;20545;-71
2022/11/26 06:56:36;;;;;;;26.42;10.30;;;;;;;5.92;100.00;102482.50;5051113;28;20053;-72
2022/11/26 06:59:02;;;;;;;26.48;10.65;;;;;;;5.87;100.00;102499.97;5050241;28;20091;-72
2022/11/26 07:01:29;;;;;;;30.23;11.63;;;;;;;5.86;100.00;102501.09;5051704;28;20076;-72
2022/11/26 07:03:56;;;;;;;37.75;12.98;;;;;;;5.81;100.00;102494.94;5053661;28;20059;-72
2022/11/26 07:06:31;;;;;;;32.55;11.68;;;;;;;5.77;100.00;102489.25;5050246;28;20056;-71
2022/11/26 07:09:00;;;;;;;32.25;12.38;;;;;;;5.76;100.00;102493.16;5047732;28;20534;-71
2022/11/26 07:11:27;;;;;;;33.90;13.25;;;;;;;5.75;100.00;102496.22;5049238;28;20053;-69
2022/11/26 07:13:55;;;;;;;28.38;10.93;;;;;;;5.71;100.00;102493.31;5048181;28;20052;-71
2022/11/26 07:16:22;;;;;;;28.77;10.45;;;;;;;5.69;100.00;102489.25;5049139;28;20053;-71
2022/11/26 07:18:51;;;;;;;34.67;12.18;;;;;;;5.65;100.00;102494.59;5048799;28;20587;-69
2022/11/26 07:21:26;;;;;;;26.75;11.35;;;;;;;5.64;100.00;102503.97;5047918;28;20119;-70
2022/11/26 07:23:53;;;;;;;31.25;11.88;;;;;;;5.62;100.00;102514.47;5047566;28;20049;-69
2022/11/26 07:26:22;;;;;;;34.53;13.63;;;;;;;5.63;100.00;102507.03;5048349;28;20144;-69
2022/11/26 07:28:49;;;;;;;33.08;12.80;;;;;;;5.63;100.00;102507.03;5049833;28;20053;-70
2022/11/26 07:31:21;;;;;;;29.40;11.60;;;;;;;5.60;100.00;102513.16;5054082;28;20103;-70
2022/11/26 07:33:49;;;;;;;32.67;11.90;;;;;;;5.58;100.00;102513.50;5048754;28;20052;-70
2022/11/26 07:36:18;;;;;;;36.33;12.07;;;;;;;5.59;100.00;102528.00;5048071;28;20167;-69
2022/11/26 07:38:45;;;;;;;29.13;10.68;;;;;;;5.58;100.00;102526.41;5047104;28;20077;-69
2022/11/26 07:41:16;;;;;;;36.10;14.30;;;;;;;5.65;100.00;102521.25;5044954;28;20164;-69
2022/11/26 07:43:44;;;;;;;36.63;13.48;;;;;;;5.65;100.00;102532.22;5053014;28;21362;-69
2022/11/26 07:46:14;;;;;;;37.22;14.32;;;;;;;5.83;100.00;102539.38;5046361;28;20153;-70
2022/11/26 07:48:41;;;;;;;42.45;14.02;;;;;;;5.91;100.00;102546.84;5054435;28;20051;-69
2022/11/26 07:51:20;;;;;;;34.20;14.90;;;;;;;6.06;100.00;102549.13;5045593;28;20129;-70
2022/11/26 07:53:48;;;;;;;36.72;13.52;;;;;;;6.16;100.00;102546.88;5071082;28;20115;-70
2022/11/26 07:56:17;;;;;;;41.67;14.65;;;;;;;6.28;100.00;102548.97;5044274;28;20449;-70
2022/11/26 07:58:45;;;;;;;42.42;16.50;;;;;;;6.35;100.00;102544.56;5041446;28;20072;-70
2022/11/26 08:01:18;;;;;;;40.97;15.23;;;;;;;6.40;100.00;102546.34;5041820;28;20057;-70
2022/11/26 08:03:47;;;;;;;44.03;16.08;;;;;;;6.49;100.00;102549.91;5043311;28;20055;-71
2022/11/26 08:06:25;;;;;;;46.95;16.70;;;;;;;6.56;100.00;102547.47;5044920;28;20110;-71
2022/11/26 08:08:52;;;;;;;44.58;19.15;;;;;;;6.61;100.00;102550.06;5042908;28;20049;-73
2022/11/26 08:11:23;;;;;;;42.17;17.02;;;;;;;6.69;100.00;102554.72;5043191;28;20053;-71
2022/11/26 08:13:55;;;;;;;44.70;18.02;;;;;;;6.79;100.00;102554.38;5043660;28;20144;-70
2022/11/26 08:16:22;;;;;;;46.38;17.20;;;;;;;6.85;100.00;102545.63;5044183;28;20053;-72
2022/11/26 08:19:11;;;;;;;48.10;17.25;;;;;;;6.94;100.00;102551.09;5043539;28;20384;-70
2022/11/26 08:21:38;;;;;;;38.00;17.38;;;;;;;7.02;100.00;102550.28;5046356;28;20052;-71
2022/11/26 08:24:07;;;;;;;49.10;17.00;;;;;;;7.04;100.00;102548.00;5054542;28;20060;-70
2022/11/26 08:26:33;;;;;;;46.63;17.40;;;;;;;7.06;100.00;102541.00;5046786;28;20575;-75
2022/11/26 08:29:07;;;;;;;48.33;17.70;;;;;;;7.13;100.00;102543.25;5039093;28;20052;-71
2022/11/26 08:31:35;;;;;;;47.45;17.95;;;;;;;7.23;100.00;102557.44;5047513;28;20052;-71
2022/11/26 08:34:11;;;;;;;56.97;20.83;;;;;;;7.27;100.00;102550.16;5047552;28;20219;-71
2022/11/26 08:36:38;;;;;;;46.70;18.60;;;;;;;7.35;100.00;102551.25;5054267;28;20049;-71
2022/11/26 08:39:04;;;;;;;49.60;19.55;;;;;;;7.40;100.00;102549.13;5047903;28;20053;-71
2022/11/26 08:41:31;;;;;;;46.13;17.85;;;;;;;7.42;100.00;102557.03;5048218;28;20052;-72
2022/11/26 08:43:57;;;;;;;41.05;15.38;;;;;;;7.45;100.00;102559.97;5050359;28;20045;-74
2022/11/26 08:46:38;;;;;;;47.13;18.10;;;;;;;7.47;100.00;102559.63;5046472;28;20056;-72
2022/11/26 08:49:09;;;;;;;39.20;16.55;;;;;;;7.60;100.00;102567.63;5046764;28;20048;-71
2022/11/26 08:51:35;;;;;;;44.03;16.48;;;;;;;7.68;100.00;102563.22;5042376;28;20421;-72
2022/11/26 08:54:02;;;;;;;53.45;21.52;;;;;;;7.75;100.00;102574.53;5049670;28;20395;-69
2022/11/26 08:56:29;;;;;;;34.10;12.82;;;;;;;7.76;100.00;102585.22;5035920;28;20059;-72
2022/11/26 08:58:56;;;;;;;37.75;12.52;;;;;;;7.86;100.00;102581.25;5047987;28;20045;-71
2022/11/26 09:01:25;;;;;;;37.90;15.20;;;;;;;7.95;100.00;102582.84;5053009;28;20071;-69
2022/11/26 09:03:54;;;;;;;38.53;14.55;;;;;;;8.00;100.00;102577.13;5042280;28;20067;-71
2022/11/26 09:06:22;;;;;;;43.17;18.48;;;;;;;8.10;100.00;102570.38;5046768;28;20045;-72
2022/11/26 09:11:37;;;;;;;;;;;;;;;8.27;100.00;102567.53;5039223;28;20057;-71
2022/11/26 09:14:04;;;;;;;43.70;15.82;;;;;;;8.33;100.00;102573.66;5047525;28;19927;-70
2022/11/26 09:16:31;;;;;;;33.08;13.27;;;;;;;8.41;100.00;102587.38;5045578;28;20551;-70
2022/11/26 09:19:00;;;;;;;24.15;8.55;;;;;;;8.46;100.00;102595.44;5050941;28;20096;-74
2022/11/26 09:21:27;;;;;;;37.28;14.02;;;;;;;8.62;100.00;102590.91;5045656;28;20049;-72
2022/11/26 09:23:54;;;;;;;15.73;4.55;;;;;;;8.67;100.00;102604.50;5047338;28;20052;-71
2022/11/26 09:26:21;;;;;;;22.27;8.18;;;;;;;8.79;100.00;102603.75;5051128;28;20045;-71
2022/11/26 09:28:48;;;;;;;20.27;4.40;;;;;;;8.83;100.00;102597.19;5048348;28;20044;-74
2022/11/26 09:31:15;;;;;;;29.75;11.15;;;;;;;8.97;100.00;102597.69;5048862;28;20094;-71
2022/11/26 09:33:43;;;;;;;46.08;14.07;;;;;;;9.05;100.00;102602.31;5051521;28;20414;-73
2022/11/26 09:36:12;;;;;;;38.83;12.60;;;;;;;9.13;100.00;102598.66;5059975;28;20071;-72
2022/11/26 09:38:39;;;;;;;14.65;5.35;;;;;;;9.16;100.00;102591.63;5044958;28;20051;-70
2022/11/26 09:41:31;;;;;;;36.70;13.77;;;;;;;9.33;100.00;102597.78;5042189;28;20111;-70
2022/11/26 09:44:03;;;;;;;36.28;12.18;;;;;;;9.45;100.00;102603.31;5044405;28;20139;-72
2022/11/26 09:47:09;;;;;;;33.65;13.30;;;;;;;9.69;100.00;102600.53;5056729;28;20634;-73
2022/11/26 09:50:13;;;;;;;10.07;3.45;;;;;;;9.76;100.00;102605.50;5040061;28;20052;-71
2022/11/26 09:52:47;;;;;;;26.45;8.00;;;;;;;9.88;100.00;102609.06;5025189;28;20056;-71
2022/11/26 09:55:30;;;;;;;31.73;10.98;;;;;;;10.04;100.00;102596.16;5052956;28;20509;-73
2022/11/26 09:58:25;;;;;;;25.80;10.40;;;;;;;10.23;100.00;102601.09;5069897;28;20048;-74
2022/11/26 10:00:55;;;;;;;33.15;10.40;;;;;;;10.36;100.00;102591.56;5045619;28;20048;-73
2022/11/26 10:03:29;;;;;;;26.42;10.05;;;;;;;10.55;100.00;102591.75;5042084;28;20052;-73
2022/11/26 10:06:01;;;;;;;30.52;8.98;;;;;;;10.66;100.00;102595.63;5045842;28;20109;-72
2022/11/26 10:08:30;;;;;;;17.20;6.95;;;;;;;10.66;100.00;102592.06;5055512;28;20047;-71
2022/11/26 10:11:18;;;;;;;27.70;10.18;;;;;;;10.70;100.00;102585.44;5054097;28;20059;-71
2022/11/26 10:13:58;;;;;;;32.65;8.32;;;;;;;10.76;100.00;102584.03;5048317;28;20048;-72
2022/11/26 10:16:36;;;;;;;36.78;11.48;;;;;;;10.98;100.00;102579.88;5044363;28;20064;-70
2022/11/26 10:19:23;;;;;;;33.78;10.18;;;;;;;11.10;100.00;102571.50;5049147;28;20127;-71
2022/11/26 10:21:59;;;;;;;26.15;6.53;;;;;;;10.98;100.00;102583.47;5049175;28;20052;-69
2022/11/26 10:24:30;;;;;;;28.38;7.93;;;;;;;11.17;100.00;102585.56;5050581;28;20041;-71
2022/11/26 10:27:03;;;;;;;17.02;5.80;;;;;;;11.11;100.00;102575.88;5047953;28;20056;-73
2022/11/26 10:29:38;;;;;;;9.65;3.00;;;;;;;11.09;100.00;102595.63;5046361;28;20588;-68
2022/11/26 10:32:22;;;;;;;11.18;4.97;;;;;;;11.22;100.00;102588.03;5048789;28;20061;-70
2022/11/26 10:34:54;;;;;;;21.63;7.57;;;;;;;11.49;100.00;102589.91;5051120;28;20059;-71
2022/11/26 10:37:24;;;;;;;14.43;5.32;;;;;;;11.28;100.00;102594.94;5048496;28;20052;-72
2022/11/26 10:40:16;;;;;;;25.48;7.50;;;;;;;11.27;100.00;102590.56;5049462;28;20079;-71
2022/11/26 10:42:53;;;;;;;15.32;3.95;;;;;;;11.17;100.00;102599.41;5034296;28;20063;-69
2022/11/26 10:45:22;;;;;;;15.85;2.70;;;;;;;11.29;100.00;102604.84;5049403;28;20060;-71
2022/11/26 10:47:49;;;;;;;9.82;2.28;;;;;;;11.36;100.00;102602.25;5053330;28;20065;-68
2022/11/26 10:50:34;;;;;;;7.38;2.85;;;;;;;11.70;100.00;102607.09;5056207;28;20574;-73
2022/11/26 10:53:21;;;;;;;21.17;5.35;;;;;;;12.41;100.00;102600.03;5049169;28;20052;-72
2022/11/26 10:55:49;;;;;;;19.20;4.68;;;;;;;12.95;100.00;102602.69;5054321;28;20130;-70
2022/11/26 10:58:21;;;;;;;6.47;2.47;;;;;;;12.99;100.00;102595.25;5055909;28;20052;-70
2022/11/26 11:00:47;;;;;;;13.85;3.17;;;;;;;13.25;100.00;102595.34;5047547;28;20092;-69
2022/11/26 11:03:16;;;;;;;21.90;4.57;;;;;;;13.07;100.00;102593.44;5045358;28;20680;-73
2022/11/26 11:05:44;;;;;;;7.18;2.40;;;;;;;12.80;100.00;102589.72;5036387;28;20053;-72
2022/11/26 11:08:31;;;;;;;15.43;1.75;;;;;;;12.88;100.00;102585.91;5045197;28;20063;-72
2022/11/26 11:11:01;;;;;;;18.00;3.75;;;;;;;12.71;100.00;102587.19;5048578;28;20063;-70
2022/11/26 11:13:43;;;;;;;18.92;4.13;;;;;;;12.72;100.00;102582.41;5049200;28;20056;-70
2022/11/26 11:16:11;;;;;;;16.15;4.15;;;;;;;12.36;100.00;102574.53;5025270;28;20053;-71
2022/11/26 11:18:48;;;;;;;5.15;2.15;;;;;;;12.23;100.00;102571.09;5032985;28;20122;-72
2022/11/26 11:21:18;;;;;;;19.60;4.65;;;;;;;12.28;100.00;102568.03;5027680;28;20057;-73
2022/11/26 11:23:44;;;;;;;8.32;2.03;;;;;;;12.31;100.00;102574.81;5028220;28;20045;-73
2022/11/26 11:26:42;;;;;;;8.77;3.58;;;;;;;12.18;100.00;102581.66;5028591;28;20080;-69